Rorichmoor — V2BV7 — position and weather

sailwx.info

Track history (hours):
 
Tides and Currents Weather Stations Pressure Air Temp Water Temp Dewpoint Dewpoint Depression Visibility Wind Speed Wind Dir Waves Ship Positions

Rorichmoor

Last reported at 2017-Apr-26 21:01 UTC. Time now 2017-Apr-27 11:11 UTC.
Position N 39°08' W 009°51'.

Length 80 m; draft 3 m.

Type: Cargo ship. MMSI: 304938000.

Date/timePositionNaut miles runAvg speedWind from/ knotsBaromVisibWave heightAir tempDewpointWater temp
2017-Apr-26 21:01N 39°08' W 009°51'2 4.7
2017-Apr-26 20:39N 39°06' W 009°51'1 5.1
2017-Apr-26 20:30N 39°05' W 009°51'2 4.9
2017-Apr-26 20:01N 39°03' W 009°51'3 5.1
2017-Apr-26 19:30N 39°00' W 009°51'2 4.9
2017-Apr-26 19:00N 38°58' W 009°51'2 4.8
2017-Apr-26 18:30N 38°55' W 009°51'3 5.5
2017-Apr-26 18:00N 38°53' W 009°51'3 5.8
2017-Apr-26 17:29N 38°50' W 009°51'3 6.0
2017-Apr-26 16:58N 38°46' W 009°51'3 6.0
2017-Apr-26 16:30N 38°44' W 009°51'3 6.4
2017-Apr-26 16:00N 38°40' W 009°50'3 6.3
2017-Apr-26 15:30N 38°37' W 009°49'3 6.5
2017-Apr-26 15:00N 38°34' W 009°48'3 6.6
2017-Apr-26 14:30N 38°31' W 009°48'7 7.3
2017-Apr-26 13:30N 38°24' W 009°45'  
2017-Apr-23 20:58N 35°57' W 005°36'5 9.5
2017-Apr-23 20:27N 35°58' W 005°30'4 9.1
2017-Apr-23 20:00N 35°60' W 005°25'4 8.8
2017-Apr-23 19:31N 36°01' W 005°20'5 9.6
2017-Apr-23 19:00N 36°01' W 005°14'395 9.0
2017-Apr-21 23:16N 39°52' E 001°32'3 9.7
2017-Apr-21 23:00N 39°54' E 001°34'5 9.6
2017-Apr-21 22:30N 39°58' E 001°38'5 9.8
2017-Apr-21 22:00N 40°01' E 001°42'5 9.8
2017-Apr-21 21:30N 40°05' E 001°46'5 9.8
2017-Apr-21 21:00N 40°09' E 001°50'5 9.7
2017-Apr-21 20:30N 40°13' E 001°53'510.1
2017-Apr-21 20:00N 40°17' E 001°58'510.2
2017-Apr-21 19:30N 40°21' E 002°02'510.0
2017-Apr-21 19:00N 40°25' E 002°06'5 9.7
2017-Apr-21 18:30N 40°29' E 002°10'5 9.6
2017-Apr-21 18:00N 40°33' E 002°13'5 9.5
2017-Apr-21 17:30N 40°36' E 002°17'5 9.4
2017-Apr-21 17:00N 40°40' E 002°21'5 9.3
2017-Apr-21 16:30N 40°44' E 002°25'5 9.4
2017-Apr-21 16:01N 40°47' E 002°29'17810.0
2017-Apr-20 22:11N 43°08' E 004°56'14 9.0
2017-Apr-20 20:38N 43°21' E 004°58'1 9.4
2017-Apr-20 20:30N 43°23' E 004°57'6 3.9
2017-Apr-20 18:55N 43°23' E 004°49'5 7.6
2017-Apr-20 18:15N 43°27' E 004°45'  
2017-Apr-17 16:58N 43°26' E 004°44'8 3.8
2017-Apr-17 14:57N 43°24' E 004°54'6 6.2
2017-Apr-17 13:59N 43°19' E 004°59'7 8.7
2017-Apr-17 13:13N 43°13' E 005°02'  
Track history (hours):
 
Tides and Currents Weather Stations Pressure Air Temp Water Temp Dewpoint Dewpoint Depression Visibility Wind Speed Wind Dir Waves Ship Positions

Rorichmoor

Last reported at 2017-Apr-26 21:01 UTC. Time now 2017-Apr-27 11:11 UTC.
Position N 39°08' W 009°51'.

Length 80 m; draft 3 m.

Type: Cargo ship. MMSI: 304938000.

Date/timePositionNaut miles runAvg speedWind from/ knotsBaromVisibWave heightAir tempDewpointWater temp
2017-Apr-26 21:01N 39°08' W 009°51'2 4.7
2017-Apr-26 20:39N 39°06' W 009°51'1 5.1
2017-Apr-26 20:30N 39°05' W 009°51'2 4.9
2017-Apr-26 20:01N 39°03' W 009°51'3 5.1
2017-Apr-26 19:30N 39°00' W 009°51'2 4.9
2017-Apr-26 19:00N 38°58' W 009°51'2 4.8
2017-Apr-26 18:30N 38°55' W 009°51'3 5.5
2017-Apr-26 18:00N 38°53' W 009°51'3 5.8
2017-Apr-26 17:29N 38°50' W 009°51'3 6.0
2017-Apr-26 16:58N 38°46' W 009°51'3 6.0
2017-Apr-26 16:30N 38°44' W 009°51'3 6.4
2017-Apr-26 16:00N 38°40' W 009°50'3 6.3
2017-Apr-26 15:30N 38°37' W 009°49'3 6.5
2017-Apr-26 15:00N 38°34' W 009°48'3 6.6
2017-Apr-26 14:30N 38°31' W 009°48'7 7.3
2017-Apr-26 13:30N 38°24' W 009°45'  
2017-Apr-23 20:58N 35°57' W 005°36'5 9.5
2017-Apr-23 20:27N 35°58' W 005°30'4 9.1
2017-Apr-23 20:00N 35°60' W 005°25'4 8.8
2017-Apr-23 19:31N 36°01' W 005°20'5 9.6
2017-Apr-23 19:00N 36°01' W 005°14'395 9.0
2017-Apr-21 23:16N 39°52' E 001°32'3 9.7
2017-Apr-21 23:00N 39°54' E 001°34'5 9.6
2017-Apr-21 22:30N 39°58' E 001°38'5 9.8
2017-Apr-21 22:00N 40°01' E 001°42'5 9.8
2017-Apr-21 21:30N 40°05' E 001°46'5 9.8
2017-Apr-21 21:00N 40°09' E 001°50'5 9.7
2017-Apr-21 20:30N 40°13' E 001°53'510.1
2017-Apr-21 20:00N 40°17' E 001°58'510.2
2017-Apr-21 19:30N 40°21' E 002°02'510.0
2017-Apr-21 19:00N 40°25' E 002°06'5 9.7
2017-Apr-21 18:30N 40°29' E 002°10'5 9.6
2017-Apr-21 18:00N 40°33' E 002°13'5 9.5
2017-Apr-21 17:30N 40°36' E 002°17'5 9.4
2017-Apr-21 17:00N 40°40' E 002°21'5 9.3
2017-Apr-21 16:30N 40°44' E 002°25'5 9.4
2017-Apr-21 16:01N 40°47' E 002°29'17810.0
2017-Apr-20 22:11N 43°08' E 004°56'14 9.0
2017-Apr-20 20:38N 43°21' E 004°58'1 9.4
2017-Apr-20 20:30N 43°23' E 004°57'6 3.9
2017-Apr-20 18:55N 43°23' E 004°49'5 7.6
2017-Apr-20 18:15N 43°27' E 004°45'  
2017-Apr-17 16:58N 43°26' E 004°44'8 3.8
2017-Apr-17 14:57N 43°24' E 004°54'6 6.2
2017-Apr-17 13:59N 43°19' E 004°59'7 8.7
2017-Apr-17 13:13N 43°13' E 005°02'  

Dump ship's entire track history